Time;durP1;ratioP1;P1;durP2;ratioP2;P2;SDS_P1;SDS_P2;PMS_P1;PMS_P2;Temp;Humidity;BMP_temperature;BMP_pressure;BME280_temperature;BME280_humidity;BME280_pressure;Samples;Min_cycle;Max_cycle;Signal;HPM_P1;HPM_P2
2023/12/19 00:01:35;;;;;;;87.65;33.40;;;;;;;;;;5013022;28;20014;-71
2023/12/19 00:04:01;;;;;;;69.93;31.75;;;;;;;;;;5012650;28;20018;-72
2023/12/19 00:06:26;;;;;;;80.22;32.30;;;;;;;;;;5013077;28;20120;-71
2023/12/19 00:08:51;;;;;;;81.75;31.70;;;;;;;;;;5012547;28;20462;-70
2023/12/19 00:11:16;;;;;;;78.10;32.07;;;;;;;;;;5013028;28;20029;-70
2023/12/19 00:13:42;;;;;;;84.90;32.53;;;;;;;;;;5016379;28;20287;-72
2023/12/19 00:16:07;;;;;;;86.25;32.88;;;;;;;;;;5016464;28;20036;-72
2023/12/19 00:18:32;;;;;;;84.18;32.28;;;;;;;;;;5015313;28;20033;-71
2023/12/19 00:20:57;;;;;;;72.32;31.25;;;;;;;;;;5015838;28;20022;-72
2023/12/19 00:23:23;;;;;;;77.28;31.17;;;;;;;;;;5016635;28;20058;-71
2023/12/19 00:25:48;;;;;;;86.80;31.92;;;;;;;;;;5015157;28;20422;-72
2023/12/19 00:28:13;;;;;;;86.13;32.00;;;;;;;;;;5016137;28;20040;-69
2023/12/19 00:30:39;;;;;;;82.03;32.47;;;;;;;;;;5016551;28;20018;-72
2023/12/19 00:33:05;;;;;;;94.53;33.13;;;;;;;;;;5016439;28;20041;-71
2023/12/19 00:35:31;;;;;;;88.60;34.05;;;;;;;;;;5015985;28;20280;-71
2023/12/19 00:37:57;;;;;;;74.25;31.90;;;;;;;;;;5016158;28;20038;-71
2023/12/19 00:40:22;;;;;;;83.45;33.92;;;;;;;;;;5015863;28;20030;-70
2023/12/19 00:42:47;;;;;;;90.32;34.33;;;;;;;;;;5015522;28;20021;-73
2023/12/19 00:45:13;;;;;;;101.97;35.67;;;;;;;;;;5016233;28;20025;-70
2023/12/19 00:47:39;;;;;;;84.95;34.55;;;;;;;;;;5015763;28;20454;-71
2023/12/19 00:50:04;;;;;;;96.45;34.10;;;;;;;;;;5015403;28;20028;-71
2023/12/19 00:52:30;;;;;;;104.78;34.97;;;;;;;;;;5015704;28;20018;-72
2023/12/19 00:54:56;;;;;;;92.57;34.80;;;;;;;;;;5015796;28;20370;-72
2023/12/19 00:57:21;;;;;;;97.30;34.88;;;;;;;;;;5014407;28;20347;-72
2023/12/19 00:59:46;;;;;;;94.85;33.88;;;;;;;;;;5014152;28;20378;-72
2023/12/19 01:02:11;;;;;;;86.90;34.97;;;;;;;;;;5015150;28;20022;-72
2023/12/19 01:04:36;;;;;;;100.63;34.13;;;;;;;;;;5014188;28;20072;-71
2023/12/19 01:07:02;;;;;;;88.85;33.25;;;;;;;;;;5015064;28;20021;-72
2023/12/19 01:09:27;;;;;;;94.80;33.92;;;;;;;;;;5015391;28;20013;-71
2023/12/19 01:11:52;;;;;;;91.80;33.33;;;;;;;;;;5015293;28;20021;-72
2023/12/19 01:14:17;;;;;;;92.45;32.88;;;;;;;;;;5015753;28;20260;-72
2023/12/19 01:16:43;;;;;;;84.50;31.95;;;;;;;;;;5014834;28;20026;-71
2023/12/19 01:19:09;;;;;;;85.35;32.33;;;;;;;;;;5014774;28;20022;-71
2023/12/19 01:21:35;;;;;;;97.82;32.80;;;;;;;;;;5015117;28;20018;-71
2023/12/19 01:24:00;;;;;;;80.80;31.75;;;;;;;;;;5014578;28;20018;-71
2023/12/19 01:26:25;;;;;;;87.03;31.60;;;;;;;;;;5014774;28;20096;-71
2023/12/19 01:28:51;;;;;;;96.07;33.90;;;;;;;;;;5015032;28;20100;-71
2023/12/19 01:31:16;;;;;;;85.70;32.78;;;;;;;;;;5014832;28;20264;-72
2023/12/19 01:33:41;;;;;;;78.18;31.38;;;;;;;;;;5015184;28;20101;-70
2023/12/19 01:36:06;;;;;;;86.65;31.80;;;;;;;;;;5014311;28;20042;-72
2023/12/19 01:38:31;;;;;;;97.97;33.08;;;;;;;;;;5015395;28;20032;-71
2023/12/19 01:40:57;;;;;;;75.55;31.90;;;;;;;;;;5015412;28;20029;-72
2023/12/19 01:43:22;;;;;;;75.40;31.58;;;;;;;;;;5014547;28;20055;-72
2023/12/19 01:45:48;;;;;;;82.05;32.42;;;;;;;;;;5014938;28;20030;-72
2023/12/19 01:48:14;;;;;;;68.18;31.50;;;;;;;;;;5014539;28;20025;-71
2023/12/19 01:50:40;;;;;;;78.40;30.42;;;;;;;;;;5014479;28;20419;-70
2023/12/19 01:53:05;;;;;;;71.70;29.75;;;;;;;;;;5014395;28;20018;-72
2023/12/19 01:55:30;;;;;;;65.50;30.20;;;;;;;;;;5014216;28;20032;-71
2023/12/19 01:57:56;;;;;;;63.47;29.77;;;;;;;;;;5014457;28;20577;-71
2023/12/19 02:00:21;;;;;;;70.18;29.98;;;;;;;;;;5014095;28;20163;-70
2023/12/19 02:02:48;;;;;;;74.68;31.48;;;;;;;;;;5014946;28;20398;-72
2023/12/19 02:05:13;;;;;;;73.25;30.70;;;;;;;;;;5014242;28;20014;-71
2023/12/19 02:07:39;;;;;;;69.97;30.20;;;;;;;;;;5013830;28;20108;-71
2023/12/19 02:10:05;;;;;;;76.55;31.30;;;;;;;;;;5014183;28;20022;-72
2023/12/19 02:12:30;;;;;;;75.05;32.22;;;;;;;;;;5014001;28;20026;-71
2023/12/19 02:14:56;;;;;;;70.53;31.00;;;;;;;;;;5013868;28;20091;-71
2023/12/19 02:17:21;;;;;;;75.43;31.67;;;;;;;;;;5014296;28;20026;-71
2023/12/19 02:19:50;;;;;;;70.97;30.52;;;;;;;;;;5014074;28;20506;-71
2023/12/19 02:22:15;;;;;;;81.78;33.35;;;;;;;;;;5014007;28;20434;-71
2023/12/19 02:24:41;;;;;;;79.05;32.63;;;;;;;;;;5013981;28;20020;-73
2023/12/19 02:27:07;;;;;;;86.95;33.83;;;;;;;;;;5012610;28;20028;-72
2023/12/19 02:29:32;;;;;;;77.88;32.95;;;;;;;;;;5013888;28;20014;-72
2023/12/19 02:31:58;;;;;;;72.90;32.40;;;;;;;;;;5013633;28;20046;-72
2023/12/19 02:34:23;;;;;;;79.35;33.03;;;;;;;;;;5011673;28;20646;-72
2023/12/19 02:36:48;;;;;;;87.68;32.58;;;;;;;;;;5013677;28;20041;-71
2023/12/19 02:39:14;;;;;;;77.82;31.88;;;;;;;;;;5013679;28;20018;-71
2023/12/19 02:41:39;;;;;;;80.53;32.33;;;;;;;;;;5013470;28;20109;-71
2023/12/19 02:44:04;;;;;;;77.83;32.87;;;;;;;;;;5014276;28;20097;-74
2023/12/19 02:46:29;;;;;;;84.25;33.45;;;;;;;;;;5013329;28;20260;-71
2023/12/19 02:48:55;;;;;;;80.32;31.80;;;;;;;;;;5013658;28;20438;-71
2023/12/19 02:51:20;;;;;;;73.95;31.40;;;;;;;;;;5013610;28;20014;-71
2023/12/19 02:53:45;;;;;;;74.65;30.38;;;;;;;;;;5013810;28;20029;-71
2023/12/19 02:56:11;;;;;;;75.90;31.65;;;;;;;;;;5013963;28;20468;-71
2023/12/19 02:58:36;;;;;;;72.60;32.70;;;;;;;;;;5013400;28;20022;-72
2023/12/19 03:01:01;;;;;;;69.33;30.63;;;;;;;;;;5013320;28;20097;-72
2023/12/19 03:03:27;;;;;;;66.85;29.23;;;;;;;;;;5013534;28;20268;-71
2023/12/19 03:05:52;;;;;;;69.63;29.38;;;;;;;;;;5013720;28;20442;-72
2023/12/19 03:08:17;;;;;;;75.00;30.47;;;;;;;;;;5013530;28;20450;-71
2023/12/19 03:10:42;;;;;;;68.15;29.30;;;;;;;;;;5013459;28;20269;-70
2023/12/19 03:13:08;;;;;;;56.67;27.85;;;;;;;;;;5012171;28;20029;-70
2023/12/19 03:15:33;;;;;;;59.50;28.48;;;;;;;;;;5013518;28;20084;-72
2023/12/19 03:17:59;;;;;;;68.82;29.92;;;;;;;;;;5013419;28;20029;-71
2023/12/19 03:20:24;;;;;;;57.80;27.90;;;;;;;;;;5013483;28;20084;-70
2023/12/19 03:22:49;;;;;;;56.72;27.13;;;;;;;;;;4996294;28;20570;-71
2023/12/19 03:25:14;;;;;;;58.85;27.55;;;;;;;;;;5013288;28;20018;-72
2023/12/19 03:27:39;;;;;;;70.05;28.10;;;;;;;;;;5013469;28;20030;-71
2023/12/19 03:30:05;;;;;;;56.72;28.30;;;;;;;;;;5014236;28;20018;-73
2023/12/19 03:32:30;;;;;;;71.53;29.73;;;;;;;;;;5012028;28;20093;-72
2023/12/19 03:34:56;;;;;;;53.73;26.77;;;;;;;;;;5013528;28;20478;-72
2023/12/19 03:37:21;;;;;;;63.87;28.93;;;;;;;;;;5012341;28;20740;-73
2023/12/19 03:39:46;;;;;;;63.78;27.67;;;;;;;;;;5013623;28;20265;-73
2023/12/19 03:42:11;;;;;;;69.83;28.27;;;;;;;;;;4997681;28;20414;-73
2023/12/19 03:44:36;;;;;;;58.75;26.52;;;;;;;;;;5016491;28;20292;-71
2023/12/19 03:47:02;;;;;;;62.72;28.13;;;;;;;;;;5018381;28;20022;-73
2023/12/19 03:49:27;;;;;;;55.45;26.80;;;;;;;;;;5018631;28;20022;-72
2023/12/19 03:51:52;;;;;;;55.45;25.58;;;;;;;;;;5017429;28;20057;-74
2023/12/19 03:54:18;;;;;;;60.17;25.35;;;;;;;;;;5019007;28;20018;-74
2023/12/19 03:56:43;;;;;;;58.30;25.10;;;;;;;;;;5016830;28;20026;-73
2023/12/19 03:59:09;;;;;;;54.67;26.17;;;;;;;;;;5016936;28;20264;-72
2023/12/19 04:01:41;;;;;;;60.42;25.83;;;;;;;;;;5016434;28;20014;-73
2023/12/19 04:04:06;;;;;;;54.38;25.20;;;;;;;;;;5016880;28;20366;-73
2023/12/19 04:06:32;;;;;;;52.77;26.20;;;;;;;;;;5016611;28;20139;-73
2023/12/19 04:08:57;;;;;;;58.67;25.03;;;;;;;;;;5017080;28;20322;-73
2023/12/19 04:11:22;;;;;;;61.75;26.50;;;;;;;;;;5016490;28;20280;-71
2023/12/19 04:13:47;;;;;;;55.60;25.03;;;;;;;;;;5016183;28;20049;-72
2023/12/19 04:16:12;;;;;;;58.83;26.48;;;;;;;;;;5016539;28;20339;-73
2023/12/19 04:18:38;;;;;;;58.03;25.00;;;;;;;;;;5015753;28;20014;-72
2023/12/19 04:21:05;;;;;;;58.58;24.98;;;;;;;;;;5016432;28;20017;-73
2023/12/19 04:23:31;;;;;;;53.20;26.15;;;;;;;;;;5016219;28;20024;-73
2023/12/19 04:25:56;;;;;;;54.28;25.27;;;;;;;;;;5015891;28;20030;-73
2023/12/19 04:28:21;;;;;;;50.13;24.13;;;;;;;;;;5016222;28;20022;-73
2023/12/19 04:30:46;;;;;;;47.47;22.85;;;;;;;;;;5015163;28;20269;-72
2023/12/19 04:33:11;;;;;;;49.03;23.42;;;;;;;;;;5016355;28;20346;-73
2023/12/19 04:35:37;;;;;;;51.08;24.25;;;;;;;;;;5015544;28;20030;-73
2023/12/19 04:38:03;;;;;;;51.17;24.92;;;;;;;;;;5015475;28;20100;-73
2023/12/19 04:40:29;;;;;;;61.72;26.73;;;;;;;;;;5015929;28;20030;-72
2023/12/19 04:42:54;;;;;;;55.05;25.85;;;;;;;;;;5015851;28;20369;-73
2023/12/19 04:45:19;;;;;;;71.93;28.08;;;;;;;;;;5014802;28;20020;-73
2023/12/19 04:47:45;;;;;;;62.97;27.75;;;;;;;;;;5015833;28;20021;-72
2023/12/19 04:50:10;;;;;;;67.03;29.00;;;;;;;;;;5016037;28;20465;-72
2023/12/19 04:52:35;;;;;;;77.85;29.83;;;;;;;;;;5015660;28;20434;-73
2023/12/19 04:55:01;;;;;;;75.50;30.35;;;;;;;;;;5015481;28;20527;-72
2023/12/19 04:57:26;;;;;;;68.97;29.52;;;;;;;;;;5013381;28;20026;-72
2023/12/19 04:59:51;;;;;;;74.30;30.50;;;;;;;;;;5016113;28;20034;-73
2023/12/19 05:02:17;;;;;;;62.28;28.27;;;;;;;;;;5015585;28;20080;-73
2023/12/19 05:04:42;;;;;;;56.80;26.25;;;;;;;;;;5015491;28;20022;-72
2023/12/19 05:07:07;;;;;;;53.05;25.77;;;;;;;;;;5015416;28;20072;-72
2023/12/19 05:09:32;;;;;;;57.50;26.08;;;;;;;;;;5015840;28;20030;-73
2023/12/19 05:11:58;;;;;;;53.95;26.33;;;;;;;;;;5015383;28;20068;-72
2023/12/19 05:14:24;;;;;;;51.30;24.83;;;;;;;;;;5015272;28;20059;-73
2023/12/19 05:16:49;;;;;;;59.55;24.90;;;;;;;;;;5014963;28;20462;-73
2023/12/19 05:19:14;;;;;;;53.00;24.65;;;;;;;;;;5014705;28;20034;-73
2023/12/19 05:21:40;;;;;;;49.38;23.52;;;;;;;;;;5014836;28;20156;-73
2023/12/19 05:24:05;;;;;;;45.78;23.35;;;;;;;;;;5015533;28;20072;-73
2023/12/19 05:26:30;;;;;;;52.88;23.48;;;;;;;;;;5014737;28;20399;-74
2023/12/19 05:28:55;;;;;;;47.33;22.98;;;;;;;;;;5015152;28;20026;-74
2023/12/19 05:31:21;;;;;;;52.10;22.63;;;;;;;;;;5015538;28;20122;-73
2023/12/19 05:33:46;;;;;;;50.03;23.48;;;;;;;;;;5015105;28;20265;-73
2023/12/19 05:36:15;;;;;;;42.33;21.30;;;;;;;;;;5013657;28;20492;-72
2023/12/19 05:38:40;;;;;;;45.60;21.02;;;;;;;;;;5015166;28;20524;-73
2023/12/19 05:41:05;;;;;;;53.25;22.80;;;;;;;;;;5014762;28;20018;-72
2023/12/19 05:43:31;;;;;;;49.42;21.52;;;;;;;;;;5014404;28;20024;-73
2023/12/19 05:45:56;;;;;;;49.42;22.75;;;;;;;;;;5015367;28;20091;-73
2023/12/19 05:48:22;;;;;;;53.90;24.33;;;;;;;;;;5014663;28;20056;-73
2023/12/19 05:50:48;;;;;;;54.75;23.98;;;;;;;;;;5015124;28;20104;-73
2023/12/19 05:53:13;;;;;;;52.85;25.13;;;;;;;;;;5014574;28;20105;-73
2023/12/19 05:55:39;;;;;;;64.43;25.50;;;;;;;;;;5014189;28;20029;-74
2023/12/19 05:58:04;;;;;;;55.75;24.75;;;;;;;;;;5014724;28;20029;-74
2023/12/19 06:00:29;;;;;;;73.25;25.98;;;;;;;;;;5014751;28;20476;-73
2023/12/19 06:02:55;;;;;;;59.53;25.52;;;;;;;;;;5014694;28;20018;-74
2023/12/19 06:05:20;;;;;;;74.43;26.52;;;;;;;;;;5014137;28;20398;-73
2023/12/19 06:07:45;;;;;;;69.72;26.60;;;;;;;;;;5013117;28;20018;-73
2023/12/19 06:10:11;;;;;;;77.22;26.38;;;;;;;;;;5014314;28;20105;-73
2023/12/19 06:12:37;;;;;;;72.03;26.02;;;;;;;;;;5014264;28;20022;-73
2023/12/19 06:15:02;;;;;;;69.68;26.02;;;;;;;;;;5015032;28;20053;-73
2023/12/19 06:17:28;;;;;;;79.93;26.67;;;;;;;;;;5014176;28;20494;-74
2023/12/19 06:19:53;;;;;;;74.82;27.13;;;;;;;;;;5014421;28;20072;-73
2023/12/19 06:22:18;;;;;;;72.70;26.20;;;;;;;;;;5013954;28;20028;-74
2023/12/19 06:24:45;;;;;;;89.70;28.90;;;;;;;;;;5012583;28;20026;-74
2023/12/19 06:27:12;;;;;;;80.15;28.40;;;;;;;;;;5013776;28;20022;-73
2023/12/19 06:29:37;;;;;;;75.97;27.38;;;;;;;;;;5013629;28;20021;-73
2023/12/19 06:32:02;;;;;;;73.20;26.52;;;;;;;;;;5013943;28;20136;-73
2023/12/19 06:34:28;;;;;;;74.45;25.17;;;;;;;;;;5013279;28;20030;-74
2023/12/19 06:36:53;;;;;;;84.80;27.08;;;;;;;;;;5013210;28;20054;-73
2023/12/19 06:39:20;;;;;;;82.85;26.50;;;;;;;;;;5013216;28;20540;-72
2023/12/19 06:41:45;;;;;;;76.60;26.95;;;;;;;;;;5013487;28;20049;-73
2023/12/19 06:44:11;;;;;;;73.10;27.25;;;;;;;;;;5013537;28;20018;-72
2023/12/19 06:46:36;;;;;;;83.15;28.52;;;;;;;;;;5014164;28;20018;-75
2023/12/19 06:49:01;;;;;;;87.35;28.45;;;;;;;;;;5012208;28;20354;-73
2023/12/19 06:51:27;;;;;;;81.78;27.77;;;;;;;;;;5013552;28;20021;-72
2023/12/19 06:53:56;;;;;;;80.45;27.92;;;;;;;;;;5013321;28;20022;-72
2023/12/19 06:56:22;;;;;;;73.32;26.90;;;;;;;;;;5012959;28;20021;-72
2023/12/19 06:58:47;;;;;;;77.30;26.38;;;;;;;;;;5013846;28;20026;-73
2023/12/19 07:01:14;;;;;;;74.57;26.67;;;;;;;;;;5013313;28;20022;-73
2023/12/19 07:03:40;;;;;;;76.68;25.75;;;;;;;;;;5013094;28;20017;-74
2023/12/19 07:06:06;;;;;;;55.60;24.83;;;;;;;;;;5013640;28;20018;-73
2023/12/19 07:08:32;;;;;;;59.58;23.23;;;;;;;;;;5013155;28;20334;-74
2023/12/19 07:10:57;;;;;;;56.85;22.83;;;;;;;;;;5013066;28;20041;-76
2023/12/19 07:13:22;;;;;;;62.55;23.08;;;;;;;;;;5013165;28;20430;-76
2023/12/19 07:15:48;;;;;;;52.95;21.77;;;;;;;;;;5013331;28;20509;-73
2023/12/19 07:18:13;;;;;;;47.75;21.45;;;;;;;;;;5013116;28;20029;-73
2023/12/19 07:20:38;;;;;;;49.63;20.47;;;;;;;;;;5014073;28;20033;-74
2023/12/19 07:23:03;;;;;;;44.80;20.47;;;;;;;;;;5017906;28;20625;-72
2023/12/19 07:25:28;;;;;;;53.07;20.70;;;;;;;;;;5017227;28;20267;-72
2023/12/19 07:27:54;;;;;;;42.35;19.15;;;;;;;;;;5018200;28;20261;-72
2023/12/19 07:30:19;;;;;;;46.83;19.27;;;;;;;;;;5017268;28;20357;-73
2023/12/19 07:32:44;;;;;;;43.83;19.15;;;;;;;;;;5017479;28;20031;-74
2023/12/19 07:35:09;;;;;;;43.20;18.85;;;;;;;;;;5017209;28;20450;-72
2023/12/19 07:37:36;;;;;;;46.92;19.67;;;;;;;;;;5017263;28;20054;-72
2023/12/19 07:40:01;;;;;;;40.67;18.48;;;;;;;;;;5017071;28;20066;-73
2023/12/19 07:42:26;;;;;;;42.63;19.25;;;;;;;;;;5015685;28;20068;-73
2023/12/19 07:44:52;;;;;;;40.10;19.10;;;;;;;;;;5017558;28;20021;-72
2023/12/19 07:47:17;;;;;;;39.37;19.10;;;;;;;;;;5017584;28;20026;-73
2023/12/19 07:49:42;;;;;;;45.08;19.70;;;;;;;;;;5016830;28;20362;-72
2023/12/19 07:52:08;;;;;;;41.78;19.13;;;;;;;;;;5016618;28;20018;-74
2023/12/19 07:54:33;;;;;;;38.22;19.85;;;;;;;;;;5016881;28;20100;-72
2023/12/19 07:56:58;;;;;;;43.90;19.67;;;;;;;;;;5016742;28;20401;-73
2023/12/19 07:59:23;;;;;;;44.20;20.55;;;;;;;;;;5016832;28;20022;-72
2023/12/19 08:01:49;;;;;;;43.40;19.45;;;;;;;;;;5016784;28;20049;-73
2023/12/19 08:04:14;;;;;;;38.17;19.13;;;;;;;;;;5016775;28;20041;-73
2023/12/19 08:06:41;;;;;;;37.72;18.50;;;;;;;;;;5017302;28;20052;-72
2023/12/19 08:09:10;;;;;;;38.58;18.23;;;;;;;;;;5017253;28;20097;-74
2023/12/19 08:11:35;;;;;;;31.05;18.30;;;;;;;;;;5016638;28;20044;-74
2023/12/19 08:14:00;;;;;;;32.57;17.67;;;;;;;;;;5015262;28;20022;-74
2023/12/19 08:16:25;;;;;;;36.93;18.30;;;;;;;;;;5016163;28;20280;-73
2023/12/19 08:18:51;;;;;;;31.77;16.48;;;;;;;;;;5016379;28;20613;-73
2023/12/19 08:21:16;;;;;;;32.90;17.23;;;;;;;;;;5016164;28;20072;-73
2023/12/19 08:23:42;;;;;;;34.63;16.80;;;;;;;;;;5014785;28;20083;-73
2023/12/19 08:26:08;;;;;;;28.95;15.98;;;;;;;;;;5017053;28;20022;-73
2023/12/19 08:28:33;;;;;;;28.48;16.33;;;;;;;;;;5016537;28;20033;-73
2023/12/19 08:30:59;;;;;;;29.02;17.02;;;;;;;;;;5016539;28;20442;-74
2023/12/19 08:33:24;;;;;;;29.05;17.98;;;;;;;;;;5015316;28;20366;-73
2023/12/19 08:35:49;;;;;;;33.50;17.27;;;;;;;;;;5016074;28;20050;-72
2023/12/19 08:38:14;;;;;;;27.75;17.85;;;;;;;;;;5016086;28;20385;-72
2023/12/19 08:40:39;;;;;;;29.77;17.85;;;;;;;;;;5015829;28;20037;-74
2023/12/19 08:43:05;;;;;;;32.42;17.55;;;;;;;;;;5015650;28;20014;-74
2023/12/19 08:45:30;;;;;;;31.23;17.47;;;;;;;;;;5015849;28;20026;-73
2023/12/19 08:47:55;;;;;;;42.73;18.47;;;;;;;;;;5014951;28;20260;-72
2023/12/19 08:50:20;;;;;;;36.75;17.63;;;;;;;;;;5015379;28;20284;-72
2023/12/19 08:52:47;;;;;;;32.88;18.15;;;;;;;;;;5015329;28;20041;-73
2023/12/19 08:55:12;;;;;;;36.30;18.30;;;;;;;;;;5015397;28;20496;-72
2023/12/19 08:57:41;;;;;;;32.67;18.08;;;;;;;;;;5015455;28;20018;-74
2023/12/19 09:00:07;;;;;;;39.53;19.38;;;;;;;;;;5015297;28;20014;-73
2023/12/19 09:02:33;;;;;;;34.97;18.38;;;;;;;;;;5015326;28;20509;-73
2023/12/19 09:04:58;;;;;;;32.53;18.33;;;;;;;;;;5015196;28;20014;-74
2023/12/19 09:07:23;;;;;;;31.60;17.37;;;;;;;;;;5015299;28;20148;-73
2023/12/19 09:09:48;;;;;;;35.60;18.25;;;;;;;;;;5015348;28;20279;-73
2023/12/19 09:12:14;;;;;;;39.47;18.92;;;;;;;;;;5014831;28;20076;-73
2023/12/19 09:14:39;;;;;;;40.38;18.65;;;;;;;;;;5015209;28;20100;-73
2023/12/19 09:17:04;;;;;;;36.23;18.27;;;;;;;;;;5015469;28;20022;-74
2023/12/19 09:19:31;;;;;;;39.33;18.08;;;;;;;;;;5014283;28;20297;-73
2023/12/19 09:21:57;;;;;;;42.50;18.88;;;;;;;;;;5014697;28;20029;-74
2023/12/19 09:24:23;;;;;;;41.45;17.85;;;;;;;;;;5014730;28;20013;-73
2023/12/19 09:26:48;;;;;;;38.42;18.13;;;;;;;;;;5015152;28;20048;-74
2023/12/19 09:29:14;;;;;;;36.45;19.35;;;;;;;;;;5013745;28;20054;-74
2023/12/19 09:31:39;;;;;;;42.83;18.35;;;;;;;;;;5014522;28;20032;-73
2023/12/19 09:34:05;;;;;;;40.30;18.23;;;;;;;;;;5014758;28;20018;-74
2023/12/19 09:36:30;;;;;;;41.15;18.23;;;;;;;;;;5015023;28;20350;-73
2023/12/19 09:38:55;;;;;;;38.03;18.20;;;;;;;;;;5014986;28;20053;-74
2023/12/19 09:41:20;;;;;;;31.70;18.05;;;;;;;;;;5014629;28;20264;-74
2023/12/19 09:43:46;;;;;;;38.83;19.17;;;;;;;;;;5014415;28;20148;-73
2023/12/19 09:46:13;;;;;;;40.38;18.55;;;;;;;;;;5014133;28;20343;-74
2023/12/19 09:48:39;;;;;;;34.15;18.95;;;;;;;;;;5014953;28;20033;-74
2023/12/19 09:51:05;;;;;;;38.80;18.73;;;;;;;;;;5014546;28;20096;-73
2023/12/19 09:53:31;;;;;;;35.42;17.65;;;;;;;;;;5013092;28;20419;-74
2023/12/19 09:55:56;;;;;;;37.88;17.40;;;;;;;;;;5014504;28;20032;-74
2023/12/19 09:58:23;;;;;;;35.63;18.67;;;;;;;;;;5014143;28;20053;-72
2023/12/19 10:00:48;;;;;;;33.47;16.95;;;;;;;;;;5014231;28;20469;-72
2023/12/19 10:03:13;;;;;;;29.45;16.10;;;;;;;;;;5014149;28;20029;-72
2023/12/19 10:05:42;;;;;;;32.95;15.73;;;;;;;;;;5014104;28;20358;-74
2023/12/19 10:08:07;;;;;;;23.48;15.52;;;;;;;;;;5014527;28;20022;-73
2023/12/19 10:10:51;;;;;;;32.43;15.23;;;;;;;;;;5014599;28;20022;-73
2023/12/19 10:13:24;;;;;;;30.13;15.40;;;;;;;;;;5013996;28;20297;-73
2023/12/19 10:15:58;;;;;;;23.45;13.32;;;;;;;;;;5014025;28;20010;-72
2023/12/19 10:18:23;;;;;;;25.60;13.57;;;;;;;;;;5014204;28;20076;-74
2023/12/19 10:20:48;;;;;;;20.52;11.80;;;;;;;;;;5013907;28;20366;-73
2023/12/19 10:23:14;;;;;;;23.80;13.50;;;;;;;;;;5014161;28;20030;-73
2023/12/19 10:25:39;;;;;;;24.08;12.70;;;;;;;;;;5012947;28;20052;-74
2023/12/19 10:28:10;;;;;;;18.02;11.50;;;;;;;;;;5014404;28;20029;-77
2023/12/19 10:30:36;;;;;;;;;;;;;;;;;;5014341;28;20014;-72
2023/12/19 10:33:02;;;;;;;23.00;12.82;;;;;;;;;;5012433;28;19908;-71
2023/12/19 10:35:40;;;;;;;18.88;11.65;;;;;;;;;;5013669;28;20069;-73
2023/12/19 10:38:06;;;;;;;19.58;11.50;;;;;;;;;;5013640;28;20450;-74
2023/12/19 10:40:31;;;;;;;19.23;11.20;;;;;;;;;;5013248;28;20021;-72
2023/12/19 10:42:57;;;;;;;22.70;11.85;;;;;;;;;;5013823;28;20029;-73
2023/12/19 10:45:24;;;;;;;16.73;11.35;;;;;;;;;;5014392;28;20369;-72
2023/12/19 10:47:49;;;;;;;19.65;11.38;;;;;;;;;;5013904;28;20050;-73
2023/12/19 10:50:14;;;;;;;21.95;11.35;;;;;;;;;;5014290;28;20037;-72
2023/12/19 10:52:43;;;;;;;17.38;10.98;;;;;;;;;;5013496;28;20026;-73
2023/12/19 10:55:10;;;;;;;18.02;11.18;;;;;;;;;;5013069;28;20049;-76
2023/12/19 10:57:36;;;;;;;18.40;11.20;;;;;;;;;;5013277;28;20029;-71
2023/12/19 11:00:13;;;;;;;20.20;11.55;;;;;;;;;;5013335;28;20401;-73
2023/12/19 11:02:59;;;;;;;24.17;12.65;;;;;;;;;;5012485;28;20018;-71
2023/12/19 11:05:43;;;;;;;20.15;10.90;;;;;;;;;;5012110;28;20021;-72
2023/12/19 11:08:11;;;;;;;18.63;11.90;;;;;;;;;;5013917;28;20040;-71
2023/12/19 11:10:37;;;;;;;19.42;12.65;;;;;;;;;;5013505;28;20010;-73
2023/12/19 11:13:04;;;;;;;24.98;12.60;;;;;;;;;;5012939;28;20443;-73
2023/12/19 11:15:29;;;;;;;24.30;12.98;;;;;;;;;;5013067;28;20014;-72
2023/12/19 11:18:00;;;;;;;22.88;13.10;;;;;;;;;;5012844;28;20032;-72
2023/12/19 11:20:25;;;;;;;16.92;12.15;;;;;;;;;;5013291;28;20018;-73
2023/12/19 11:22:50;;;;;;;22.80;11.93;;;;;;;;;;5013319;28;20443;-73
2023/12/19 11:25:31;;;;;;;19.13;11.20;;;;;;;;;;5013205;28;20473;-73
2023/12/19 11:27:59;;;;;;;15.27;11.10;;;;;;;;;;5012945;28;20771;-73
2023/12/19 11:30:40;;;;;;;15.00;11.63;;;;;;;;;;5013418;28;20346;-73
2023/12/19 11:33:11;;;;;;;15.63;11.68;;;;;;;;;;5013537;28;20034;-72
2023/12/19 11:35:36;;;;;;;16.50;12.00;;;;;;;;;;5012850;28;20067;-74
2023/12/19 11:38:24;;;;;;;17.00;10.80;;;;;;;;;;5016774;28;20383;-75
2023/12/19 11:40:50;;;;;;;20.08;11.80;;;;;;;;;;5019159;28;20045;-74
2023/12/19 11:43:28;;;;;;;14.70;10.85;;;;;;;;;;5017429;28;20022;-73
2023/12/19 11:46:15;;;;;;;13.77;10.73;;;;;;;;;;5017748;28;20037;-74
2023/12/19 11:48:48;;;;;;;14.98;10.60;;;;;;;;;;5008969;28;20026;-74
2023/12/19 11:51:14;;;;;;;14.18;10.80;;;;;;;;;;5018231;28;20336;-76
2023/12/19 11:53:40;;;;;;;14.00;11.10;;;;;;;;;;5017044;28;20013;-73
2023/12/19 11:56:08;;;;;;;12.85;11.13;;;;;;;;;;5015153;28;20060;-73
2023/12/19 11:58:33;;;;;;;15.13;10.27;;;;;;;;;;5013592;28;20053;-75
2023/12/19 12:00:59;;;;;;;13.10;9.50;;;;;;;;;;5013950;28;20014;-72
2023/12/19 12:03:24;;;;;;;14.48;10.02;;;;;;;;;;5013783;28;20097;-73
2023/12/19 12:05:50;;;;;;;17.55;10.43;;;;;;;;;;5012860;28;20061;-73
2023/12/19 12:08:15;;;;;;;13.00;9.35;;;;;;;;;;5015831;28;20083;-73
2023/12/19 12:10:42;;;;;;;11.05;9.10;;;;;;;;;;5016143;28;20439;-75
2023/12/19 12:13:07;;;;;;;15.13;9.20;;;;;;;;;;5015998;28;20025;-73
2023/12/19 12:15:32;;;;;;;13.93;9.18;;;;;;;;;;5016135;28;20021;-73
2023/12/19 12:18:02;;;;;;;11.85;8.05;;;;;;;;;;5016075;28;20361;-73
2023/12/19 12:20:31;;;;;;;9.93;7.32;;;;;;;;;;5016248;28;20030;-72
2023/12/19 12:22:57;;;;;;;7.85;6.43;;;;;;;;;;5016119;28;20018;-72
2023/12/19 12:25:22;;;;;;;8.90;6.60;;;;;;;;;;5015473;28;20327;-73
2023/12/19 12:27:48;;;;;;;9.82;5.63;;;;;;;;;;5016003;28;20071;-74
2023/12/19 12:30:14;;;;;;;6.50;5.15;;;;;;;;;;5016383;28;20028;-72
2023/12/19 12:32:40;;;;;;;11.27;5.72;;;;;;;;;;5015934;28;20469;-72
2023/12/19 12:35:34;;;;;;;6.93;5.25;;;;;;;;;;5015838;28;20021;-74
2023/12/19 12:38:01;;;;;;;7.28;5.10;;;;;;;;;;5015761;28;20127;-74
2023/12/19 12:40:27;;;;;;;7.63;5.03;;;;;;;;;;5015733;28;20053;-74
2023/12/19 12:42:52;;;;;;;9.57;5.07;;;;;;;;;;5015572;28;20450;-73
2023/12/19 12:45:18;;;;;;;4.88;4.47;;;;;;;;;;5015672;28;20060;-73
2023/12/19 12:47:43;;;;;;;8.25;4.05;;;;;;;;;;5015593;28;20030;-72
2023/12/19 12:50:08;;;;;;;5.75;4.15;;;;;;;;;;5015866;28;20057;-74
2023/12/19 12:52:34;;;;;;;5.50;4.18;;;;;;;;;;5015513;28;20168;-73
2023/12/19 12:55:00;;;;;;;10.20;4.38;;;;;;;;;;5015425;28;20465;-74
2023/12/19 12:57:25;;;;;;;7.10;3.45;;;;;;;;;;5015573;28;20033;-76
2023/12/19 12:59:50;;;;;;;5.90;3.28;;;;;;;;;;5015404;28;20458;-73
2023/12/19 13:02:16;;;;;;;6.80;3.08;;;;;;;;;;5015168;28;20423;-72
2023/12/19 13:04:41;;;;;;;6.27;4.00;;;;;;;;;;5015226;28;20465;-73
2023/12/19 13:07:06;;;;;;;12.13;3.53;;;;;;;;;;5015575;28;20276;-73
2023/12/19 13:09:32;;;;;;;8.23;3.30;;;;;;;;;;5015232;28;20268;-73
2023/12/19 13:12:00;;;;;;;5.90;3.20;;;;;;;;;;5014918;28;20032;-73
2023/12/19 13:14:25;;;;;;;7.05;3.45;;;;;;;;;;5015234;28;20049;-73
2023/12/19 13:16:51;;;;;;;5.70;4.05;;;;;;;;;;5015405;28;20071;-73
2023/12/19 13:19:18;;;;;;;7.95;3.65;;;;;;;;;;5014528;28;20022;-73
2023/12/19 13:21:43;;;;;;;3.85;2.92;;;;;;;;;;5014983;28;20096;-72
2023/12/19 13:24:09;;;;;;;4.53;3.03;;;;;;;;;;5015240;28;20442;-73
2023/12/19 13:26:34;;;;;;;6.20;2.50;;;;;;;;;;5015189;28;20037;-72
2023/12/19 13:29:01;;;;;;;5.78;2.85;;;;;;;;;;5014572;28;20358;-73
2023/12/19 13:31:28;;;;;;;4.05;3.00;;;;;;;;;;5014666;28;20014;-74
2023/12/19 13:33:54;;;;;;;5.38;3.00;;;;;;;;;;5013416;28;20386;-74
2023/12/19 13:36:20;;;;;;;5.22;3.13;;;;;;;;;;5014918;28;20072;-74
2023/12/19 13:38:46;;;;;;;5.18;3.00;;;;;;;;;;5014613;28;20133;-74
2023/12/19 13:41:11;;;;;;;4.35;3.20;;;;;;;;;;5014749;28;20085;-75
2023/12/19 13:43:37;;;;;;;4.80;2.58;;;;;;;;;;5014622;28;20017;-73
2023/12/19 13:46:02;;;;;;;5.95;2.08;;;;;;;;;;5014567;28;20029;-73
2023/12/19 13:48:27;;;;;;;3.30;1.42;;;;;;;;;;5014552;28;20034;-74
2023/12/19 13:50:52;;;;;;;1.55;1.40;;;;;;;;;;5014436;28;20045;-73
2023/12/19 13:53:18;;;;;;;2.43;1.17;;;;;;;;;;5014492;28;20052;-73
2023/12/19 13:55:43;;;;;;;1.30;1.20;;;;;;;;;;5013120;28;20364;-74
2023/12/19 13:58:08;;;;;;;2.88;1.40;;;;;;;;;;5013971;28;20080;-73
2023/12/19 14:00:34;;;;;;;4.38;1.30;;;;;;;;;;5014463;28;20053;-76
2023/12/19 14:02:59;;;;;;;2.13;1.20;;;;;;;;;;4996512;28;20493;-73
2023/12/19 14:05:26;;;;;;;2.13;1.00;;;;;;;;;;5014031;28;20029;-73
2023/12/19 14:07:52;;;;;;;2.03;1.30;;;;;;;;;;5014176;28;20100;-73
2023/12/19 14:10:17;;;;;;;0.88;0.85;;;;;;;;;;5014240;28;20064;-74
2023/12/19 14:12:44;;;;;;;1.75;0.80;;;;;;;;;;5013880;28;20014;-74
2023/12/19 14:15:13;;;;;;;1.10;1.10;;;;;;;;;;5013857;28;20454;-74